createdAt,value
2018-03-29T00:02:49.604Z,0.07
2018-03-29T00:05:53.623Z,0.00
2018-03-29T00:08:57.655Z,0.00
2018-03-29T00:12:00.902Z,0.00
2018-03-29T00:15:04.232Z,0.00
2018-03-29T00:18:08.459Z,0.00
2018-03-29T00:21:11.722Z,0.05
2018-03-29T00:24:15.005Z,0.00
2018-03-29T00:27:18.281Z,0.07
2018-03-29T00:30:21.550Z,0.00
2018-03-29T00:33:24.804Z,0.00
2018-03-29T00:36:28.060Z,0.00
2018-03-29T00:39:31.363Z,0.00
2018-03-29T00:42:34.614Z,0.07
2018-03-29T00:45:38.661Z,0.00
2018-03-29T00:48:41.935Z,0.00
2018-03-29T00:51:45.985Z,0.00
2018-03-29T00:54:49.246Z,0.00
2018-03-29T00:57:53.252Z,0.00
2018-03-29T01:00:57.277Z,0.00
2018-03-29T01:04:01.400Z,0.03
2018-03-29T01:07:05.413Z,0.00
2018-03-29T01:10:08.780Z,0.00
2018-03-29T01:13:12.058Z,0.10
2018-03-29T01:16:15.325Z,0.00
2018-03-29T01:19:18.589Z,0.00
2018-03-29T01:22:22.606Z,0.00
2018-03-29T01:25:26.653Z,0.00
2018-03-29T01:28:29.931Z,0.00
2018-03-29T01:31:34.030Z,0.00
2018-03-29T01:34:37.310Z,0.10
2018-03-29T01:37:40.560Z,0.03
2018-03-29T01:40:43.814Z,0.00
2018-03-29T01:43:47.848Z,0.17
2018-03-29T01:46:51.897Z,0.03
2018-03-29T01:49:55.169Z,0.10
2018-03-29T01:52:58.436Z,0.10
2018-03-29T01:56:02.478Z,0.10
2018-03-29T01:59:05.758Z,0.10
2018-03-29T02:02:09.037Z,0.10
2018-03-29T02:05:12.309Z,0.10
2018-03-29T02:08:15.558Z,0.10
2018-03-29T02:11:19.581Z,0.10
2018-03-29T02:14:22.853Z,0.10
2018-03-29T02:17:26.109Z,0.13
2018-03-29T02:20:29.397Z,0.13
2018-03-29T02:23:32.663Z,0.10
2018-03-29T02:26:36.712Z,0.27
2018-03-29T02:29:40.002Z,0.20
2018-03-29T02:32:44.097Z,0.27
2018-03-29T02:35:48.142Z,0.10
2018-03-29T02:38:52.212Z,0.10
2018-03-29T02:41:56.229Z,0.30
2018-03-29T02:45:00.263Z,0.20
2018-03-29T02:48:03.539Z,0.27
2018-03-29T02:51:07.577Z,0.30
2018-03-29T02:54:10.861Z,0.20
2018-03-29T02:57:14.888Z,0.30
2018-03-29T03:00:18.167Z,0.20
2018-03-29T03:03:22.190Z,0.40
2018-03-29T03:06:26.266Z,0.40
2018-03-29T03:09:29.534Z,0.40
2018-03-29T03:12:32.799Z,0.33
2018-03-29T03:15:36.820Z,0.47
2018-03-29T03:18:40.108Z,0.20
2018-03-29T03:21:44.285Z,0.40
2018-03-29T03:24:47.601Z,0.53
2018-03-29T03:27:50.929Z,0.33
2018-03-29T03:30:54.949Z,0.47
2018-03-29T03:33:58.234Z,0.60
2018-03-29T03:37:02.365Z,0.77
2018-03-29T03:40:05.934Z,0.87
2018-03-29T03:43:09.280Z,0.70
2018-03-29T03:46:12.814Z,0.53
2018-03-29T03:49:16.159Z,0.50
2018-03-29T03:52:20.204Z,0.30
2018-03-29T03:55:23.490Z,0.40
2018-03-29T03:58:27.281Z,0.30
2018-03-29T04:01:31.302Z,0.30
2018-03-29T04:04:34.565Z,0.40
2018-03-29T04:07:38.897Z,0.53
2018-03-29T04:10:42.159Z,0.40
2018-03-29T04:13:45.549Z,0.30
2018-03-29T04:16:48.809Z,0.33
2018-03-29T04:19:52.088Z,0.70
2018-03-29T04:22:55.353Z,0.50
2018-03-29T04:25:58.632Z,0.50
2018-03-29T04:29:01.886Z,0.60
2018-03-29T04:32:05.913Z,0.50
2018-03-29T04:35:09.969Z,0.60
2018-03-29T04:38:13.220Z,0.70
2018-03-29T04:41:17.273Z,0.80
2018-03-29T04:44:20.525Z,0.70
2018-03-29T04:47:24.566Z,0.70
2018-03-29T04:50:28.644Z,0.62
2018-03-29T04:53:31.904Z,0.80
2018-03-29T04:56:35.217Z,0.70
2018-03-29T04:59:38.825Z,0.90
2018-03-29T05:02:42.084Z,0.77
2018-03-29T05:05:45.350Z,1.00
2018-03-29T05:08:49.370Z,1.00
2018-03-29T05:11:53.472Z,1.30
2018-03-29T05:14:56.752Z,1.33
2018-03-29T05:18:00.081Z,1.30
2018-03-29T05:21:03.381Z,1.00
2018-03-29T05:24:06.644Z,1.40
2018-03-29T05:27:15.401Z,1.30
2018-03-29T05:30:19.446Z,1.27
2018-03-29T05:33:22.702Z,1.90
2018-03-29T05:36:26.725Z,1.67
2018-03-29T05:39:30.908Z,1.87
2018-03-29T05:42:34.209Z,1.90
2018-03-29T05:45:37.489Z,1.70
2018-03-29T05:48:40.752Z,1.40
2018-03-29T05:51:46.089Z,1.63
2018-03-29T05:54:50.713Z,1.73
2018-03-29T05:57:54.737Z,1.50
2018-03-29T06:00:58.006Z,2.20
2018-03-29T06:04:02.313Z,2.07
2018-03-29T06:07:05.619Z,2.10
2018-03-29T06:10:09.742Z,1.70
2018-03-29T06:13:13.010Z,1.90
2018-03-29T06:16:17.082Z,1.90
2018-03-29T06:19:20.336Z,2.57
2018-03-29T06:22:23.962Z,2.80
2018-03-29T06:25:27.987Z,2.67
2018-03-29T06:28:32.111Z,2.77
2018-03-29T06:31:36.159Z,3.17
2018-03-29T06:34:39.517Z,2.53
2018-03-29T06:37:42.790Z,2.77
2018-03-29T06:40:46.049Z,2.57
2018-03-29T06:43:49.345Z,2.30
2018-03-29T06:46:52.605Z,2.30
2018-03-29T06:49:56.636Z,2.00
2018-03-29T06:52:59.916Z,2.40
2018-03-29T06:56:04.007Z,2.37
2018-03-29T06:59:07.305Z,2.23
2018-03-29T07:02:10.588Z,2.33
2018-03-29T07:05:13.869Z,2.47
2018-03-29T07:08:17.167Z,2.57
2018-03-29T07:11:20.434Z,2.67
2018-03-29T07:14:23.713Z,2.17
2018-03-29T07:17:27.745Z,2.43
2018-03-29T07:20:30.996Z,2.13
2018-03-29T07:23:34.332Z,2.37
2018-03-29T07:26:38.357Z,3.10
2018-03-29T07:29:41.616Z,2.13
2018-03-29T07:32:45.686Z,2.77
2018-03-29T07:35:49.011Z,2.90
2018-03-29T07:38:52.269Z,4.77
2018-03-29T07:41:55.543Z,3.27
2018-03-29T07:44:59.569Z,2.40
2018-03-29T07:48:03.123Z,2.27
2018-03-29T07:51:06.388Z,2.47
2018-03-29T07:54:09.649Z,2.77
2018-03-29T07:57:13.704Z,3.10
2018-03-29T08:00:16.976Z,2.40
2018-03-29T08:03:21.966Z,2.40
2018-03-29T08:06:25.240Z,2.80
2018-03-29T08:09:29.265Z,2.30
2018-03-29T08:12:32.701Z,2.20
2018-03-29T08:15:36.677Z,1.93
2018-03-29T08:18:39.937Z,2.03
2018-03-29T08:21:43.962Z,1.80
2018-03-29T08:24:48.045Z,2.03
2018-03-29T08:27:52.122Z,2.10
2018-03-29T08:30:55.455Z,2.10
2018-03-29T08:33:58.779Z,2.17
2018-03-29T08:37:02.972Z,1.70
2018-03-29T08:40:06.978Z,1.90
2018-03-29T08:43:10.249Z,1.90
2018-03-29T08:46:13.521Z,1.90
2018-03-29T08:49:16.821Z,1.33
2018-03-29T08:52:20.193Z,1.67
2018-03-29T08:55:25.521Z,1.63
2018-03-29T08:58:28.886Z,1.67
2018-03-29T09:01:32.400Z,1.77
2018-03-29T09:04:35.720Z,1.93
2018-03-29T09:07:39.225Z,1.30
2018-03-29T09:10:43.672Z,1.77
2018-03-29T09:13:47.800Z,1.57
2018-03-29T09:16:51.560Z,1.50
2018-03-29T09:19:54.917Z,1.53
2018-03-29T09:22:58.852Z,1.60
2018-03-29T09:26:02.158Z,1.60
2018-03-29T09:29:05.446Z,1.60
2018-03-29T09:32:08.729Z,1.80
2018-03-29T09:35:12.025Z,1.60
2018-03-29T09:38:15.293Z,1.65
2018-03-29T09:41:19.332Z,1.73
2018-03-29T09:44:22.669Z,1.60
2018-03-29T09:47:25.994Z,1.80
2018-03-29T09:50:29.253Z,2.13
2018-03-29T09:53:32.530Z,2.00
2018-03-29T09:56:35.797Z,1.60
2018-03-29T09:59:39.836Z,1.57
2018-03-29T10:02:48.559Z,1.30
2018-03-29T10:05:53.389Z,1.80
2018-03-29T10:08:56.686Z,1.70
2018-03-29T10:11:59.956Z,2.07
2018-03-29T10:15:04.041Z,1.90
2018-03-29T10:18:07.321Z,2.20
2018-03-29T10:21:10.625Z,2.07
2018-03-29T10:24:13.890Z,2.33
2018-03-29T10:27:17.182Z,2.13
2018-03-29T10:30:21.204Z,2.00
2018-03-29T10:33:24.482Z,2.17
2018-03-29T10:36:28.528Z,2.30
2018-03-29T10:39:31.839Z,2.33
2018-03-29T10:42:35.111Z,2.10
2018-03-29T10:45:38.372Z,1.60
2018-03-29T10:48:41.850Z,2.20
2018-03-29T10:51:46.050Z,1.70
2018-03-29T10:54:49.344Z,1.60
2018-03-29T10:57:52.626Z,1.57
2018-03-29T11:00:56.680Z,1.60
2018-03-29T11:03:59.970Z,1.77
2018-03-29T11:07:03.278Z,1.70
2018-03-29T11:10:06.544Z,1.60
2018-03-29T11:13:09.868Z,1.55
2018-03-29T11:16:13.918Z,1.70
2018-03-29T11:19:18.076Z,1.63
2018-03-29T11:22:21.348Z,1.63
2018-03-29T11:25:25.875Z,1.70
2018-03-29T11:28:29.906Z,1.63
2018-03-29T11:31:33.472Z,1.17
2018-03-29T11:34:38.283Z,1.80
2018-03-29T11:37:41.544Z,1.40
2018-03-29T11:40:45.192Z,1.55
2018-03-29T11:43:48.484Z,1.70
2018-03-29T11:46:52.002Z,1.87
2018-03-29T11:49:55.253Z,1.73
2018-03-29T11:52:58.884Z,1.17
2018-03-29T11:56:02.170Z,1.60
2018-03-29T11:59:05.459Z,1.30
2018-03-29T12:02:08.750Z,1.37
2018-03-29T12:05:12.025Z,1.60
2018-03-29T12:08:15.441Z,1.40
2018-03-29T12:11:18.740Z,1.93
2018-03-29T12:14:22.037Z,1.70
2018-03-29T12:17:25.304Z,1.43
2018-03-29T12:20:29.354Z,1.40
2018-03-29T12:23:32.640Z,1.60
2018-03-29T12:26:35.946Z,1.87
2018-03-29T12:29:39.267Z,1.60
2018-03-29T12:32:42.550Z,1.60
2018-03-29T12:35:45.832Z,1.57
2018-03-29T12:38:49.135Z,1.13
2018-03-29T12:41:52.412Z,1.00
2018-03-29T12:44:56.723Z,1.70
2018-03-29T12:48:00.777Z,1.20
2018-03-29T12:51:05.062Z,1.23
2018-03-29T12:54:08.309Z,1.30
2018-03-29T12:57:29.580Z,1.10
2018-03-29T13:00:33.634Z,1.50
2018-03-29T13:03:36.928Z,1.20
2018-03-29T13:06:40.213Z,1.20
2018-03-29T13:09:43.510Z,1.13
2018-03-29T13:12:46.808Z,1.50
2018-03-29T13:15:50.133Z,0.80
2018-03-29T13:18:53.444Z,0.87
2018-03-29T13:21:56.722Z,1.27
2018-03-29T13:25:00.005Z,1.37
2018-03-29T13:28:03.283Z,1.07
2018-03-29T13:31:07.603Z,1.50
2018-03-29T13:37:29.095Z,1.23
2018-03-29T13:40:32.394Z,0.90
2018-03-29T13:43:35.672Z,1.27
2018-03-29T13:46:38.968Z,1.10
2018-03-29T13:49:42.221Z,0.70
2018-03-29T13:52:45.488Z,2.70
2018-03-29T13:55:48.850Z,0.90
2018-03-29T13:58:52.680Z,0.77
2018-03-29T14:01:55.951Z,0.70
2018-03-29T14:04:59.980Z,0.80
2018-03-29T14:08:03.245Z,0.80
2018-03-29T14:11:06.506Z,1.00
2018-03-29T14:14:10.697Z,1.00
2018-03-29T14:17:14.086Z,0.90
2018-03-29T14:20:17.346Z,1.03
2018-03-29T14:23:20.625Z,2.33
2018-03-29T14:26:23.973Z,0.73
2018-03-29T14:29:28.200Z,0.97
2018-03-29T14:32:31.461Z,1.30
2018-03-29T14:35:34.762Z,2.47
2018-03-29T14:38:38.786Z,2.73
2018-03-29T14:41:42.816Z,1.10
2018-03-29T14:44:46.094Z,1.87
2018-03-29T14:47:50.144Z,1.47
2018-03-29T14:50:53.501Z,1.50
2018-03-29T14:53:57.633Z,1.20
2018-03-29T14:57:01.729Z,1.23
2018-03-29T15:00:05.763Z,1.30
2018-03-29T15:03:09.792Z,1.47
2018-03-29T15:06:13.078Z,1.42
2018-03-29T15:09:17.101Z,2.20
2018-03-29T15:12:21.421Z,1.20
2018-03-29T15:15:25.480Z,1.57
2018-03-29T15:18:28.732Z,1.40
2018-03-29T15:21:32.786Z,1.50
2018-03-29T15:24:36.049Z,2.80
2018-03-29T15:27:39.330Z,2.08
2018-03-29T15:30:43.378Z,1.50
2018-03-29T15:33:46.671Z,2.30
2018-03-29T15:36:49.956Z,2.20
2018-03-29T15:39:53.422Z,1.73
2018-03-29T15:42:56.684Z,1.10
2018-03-29T15:45:59.971Z,1.10
2018-03-29T15:49:03.230Z,1.60
2018-03-29T15:52:07.283Z,1.60
2018-03-29T15:55:10.558Z,1.40
2018-03-29T15:58:13.833Z,1.20
2018-03-29T16:01:17.098Z,1.07
2018-03-29T16:04:20.357Z,1.57
2018-03-29T16:07:23.653Z,1.23
2018-03-29T16:10:27.684Z,2.15
2018-03-29T16:13:30.993Z,1.37
2018-03-29T16:16:34.317Z,1.30
2018-03-29T16:19:37.580Z,1.30
2018-03-29T16:22:43.056Z,1.30
2018-03-29T16:25:46.772Z,1.10
2018-03-29T16:28:50.062Z,1.37
2018-03-29T16:31:54.147Z,0.97
2018-03-29T16:34:57.694Z,1.40
2018-03-29T16:38:01.039Z,0.90
2018-03-29T16:41:04.460Z,1.60
2018-03-29T16:44:07.731Z,1.80
2018-03-29T16:47:11.891Z,2.57
2018-03-29T16:50:15.221Z,1.80
2018-03-29T16:53:18.493Z,2.60
2018-03-29T16:56:21.801Z,4.67
2018-03-29T16:59:25.118Z,2.00
2018-03-29T17:02:28.364Z,2.63
2018-03-29T17:05:31.637Z,1.90
2018-03-29T17:08:35.665Z,1.63
2018-03-29T17:11:38.930Z,1.70
2018-03-29T17:14:42.180Z,1.47
2018-03-29T17:17:45.506Z,1.37
2018-03-29T17:20:48.899Z,1.43
2018-03-29T17:23:52.196Z,1.20
2018-03-29T17:26:55.696Z,1.30
2018-03-29T17:29:58.964Z,1.30
2018-03-29T17:33:02.235Z,1.70
2018-03-29T17:36:06.260Z,2.10
2018-03-29T17:39:09.570Z,1.80
2018-03-29T17:42:12.850Z,1.73
2018-03-29T17:45:16.870Z,1.30
2018-03-29T17:48:20.237Z,1.30
2018-03-29T17:51:23.581Z,0.83
2018-03-29T17:54:26.855Z,0.90
2018-03-29T17:57:30.887Z,1.60
2018-03-29T18:00:34.186Z,5.85
2018-03-29T18:03:37.446Z,3.30
2018-03-29T18:06:41.519Z,2.83
2018-03-29T18:09:44.800Z,2.40
2018-03-29T18:12:48.064Z,4.00
2018-03-29T18:15:52.169Z,2.27
2018-03-29T18:18:55.442Z,2.17
2018-03-29T18:21:59.481Z,2.50
2018-03-29T18:25:02.785Z,2.57
2018-03-29T18:28:06.869Z,1.60
2018-03-29T18:31:10.126Z,1.00
2018-03-29T18:34:13.380Z,0.97
2018-03-29T18:37:16.650Z,1.10
2018-03-29T18:40:19.971Z,1.57
2018-03-29T18:43:23.254Z,1.50
2018-03-29T18:46:26.572Z,1.00
2018-03-29T18:49:30.637Z,1.53
2018-03-29T18:52:33.899Z,1.47
2018-03-29T18:55:37.954Z,3.17
2018-03-29T18:58:41.281Z,3.40
2018-03-29T19:01:44.552Z,2.25
2018-03-29T19:04:47.846Z,1.73
2018-03-29T19:07:51.121Z,0.90
2018-03-29T19:10:55.156Z,1.60
2018-03-29T19:13:58.462Z,1.20
2018-03-29T19:17:01.736Z,1.12
2018-03-29T19:20:06.160Z,0.90
2018-03-29T19:23:10.182Z,1.23
2018-03-29T19:26:13.438Z,1.00
2018-03-29T19:29:16.705Z,1.03
2018-03-29T19:32:19.991Z,1.00
2018-03-29T19:35:23.281Z,7.30
2018-03-29T19:38:26.544Z,1.80
2018-03-29T19:41:30.659Z,1.23
2018-03-29T19:44:34.685Z,1.27
2018-03-29T19:47:38.724Z,1.50
2018-03-29T19:50:41.996Z,1.50
2018-03-29T19:53:46.013Z,1.93
2018-03-29T19:56:50.036Z,1.30
2018-03-29T19:59:53.365Z,3.00
2018-03-29T20:02:56.659Z,2.57
2018-03-29T20:05:59.932Z,1.58
2018-03-29T20:09:03.181Z,1.60
2018-03-29T20:12:06.465Z,1.90
2018-03-29T20:15:09.753Z,2.00
2018-03-29T20:18:13.013Z,1.67
2018-03-29T20:21:16.273Z,1.53
2018-03-29T20:24:19.637Z,2.10
2018-03-29T20:27:23.073Z,2.30
2018-03-29T20:30:26.452Z,1.97
2018-03-29T20:33:29.751Z,2.00
2018-03-29T20:36:33.064Z,2.03
2018-03-29T20:39:36.369Z,1.97
2018-03-29T20:42:39.689Z,1.93
2018-03-29T20:45:43.791Z,1.77
2018-03-29T20:48:47.122Z,1.50
2018-03-29T20:51:51.601Z,1.50
2018-03-29T20:54:55.045Z,1.23
2018-03-29T20:57:58.925Z,1.15
2018-03-29T21:01:02.249Z,1.00
2018-03-29T21:04:06.313Z,1.50
2018-03-29T21:07:09.603Z,1.60
2018-03-29T21:10:14.145Z,1.30
2018-03-29T21:13:18.636Z,1.30
2018-03-29T21:16:23.053Z,1.40
2018-03-29T21:19:26.800Z,1.13
2018-03-29T21:22:30.380Z,1.33
2018-03-29T21:25:33.669Z,1.23
2018-03-29T21:28:39.007Z,1.20
2018-03-29T21:31:42.538Z,0.90
2018-03-29T21:34:46.794Z,1.00
2018-03-29T21:37:51.255Z,0.77
2018-03-29T21:40:55.556Z,1.10
2018-03-29T21:44:00.712Z,1.03
2018-03-29T21:47:05.212Z,0.87
2018-03-29T21:50:52.208Z,1.30
2018-03-29T21:53:57.872Z,0.77
2018-03-29T21:57:01.912Z,1.00
2018-03-29T22:00:05.838Z,0.97
2018-03-29T22:03:09.138Z,0.90
2018-03-29T22:06:12.395Z,0.97
2018-03-29T22:09:15.667Z,0.60
2018-03-29T22:12:19.045Z,1.30
2018-03-29T22:15:22.379Z,1.03
2018-03-29T22:18:25.661Z,0.90
2018-03-29T22:21:28.931Z,0.83
2018-03-29T22:24:32.192Z,1.20
2018-03-29T22:27:36.263Z,0.70
2018-03-29T22:30:39.584Z,0.97
2018-03-29T22:33:43.686Z,1.00
2018-03-29T22:36:46.933Z,1.00
2018-03-29T22:39:51.563Z,0.90
2018-03-29T22:42:55.948Z,3.90
2018-03-29T22:45:59.298Z,3.73
2018-03-29T22:49:06.224Z,2.33
2018-03-29T22:52:10.091Z,1.37
2018-03-29T22:55:13.698Z,1.63
2018-03-29T22:58:18.300Z,2.10
2018-03-29T23:01:21.838Z,3.50
2018-03-29T23:04:25.176Z,3.97
2018-03-29T23:07:28.417Z,2.67
2018-03-29T23:10:32.552Z,2.47
2018-03-29T23:13:35.805Z,1.90
2018-03-29T23:16:39.154Z,1.53
2018-03-29T23:19:42.784Z,1.67
2018-03-29T23:22:46.076Z,1.57
2018-03-29T23:25:49.333Z,1.40
2018-03-29T23:28:53.360Z,1.50
2018-03-29T23:31:56.917Z,1.73
2018-03-29T23:35:00.196Z,1.90
2018-03-29T23:38:03.762Z,1.80
2018-03-29T23:41:07.026Z,1.80
2018-03-29T23:44:11.378Z,1.43
2018-03-29T23:47:15.428Z,1.50
2018-03-29T23:50:18.730Z,1.30
2018-03-29T23:53:21.998Z,1.10
2018-03-29T23:56:26.056Z,1.73
2018-03-29T23:59:30.340Z,1.10
